sensor_id;sensor_type;location;lat;lon;timestamp;pressure;altitude;pressure_sealevel;temperature;humidity
74270;BME280;62754;48.252;11.654;2023-08-30T00:00:49;95557.47;;;12.61;100.00
74270;BME280;62754;48.252;11.654;2023-08-30T00:03:15;95557.97;;;12.65;100.00
74270;BME280;62754;48.252;11.654;2023-08-30T00:05:41;95552.81;;;12.65;100.00
74270;BME280;62754;48.252;11.654;2023-08-30T00:08:10;95548.75;;;12.62;100.00
74270;BME280;62754;48.252;11.654;2023-08-30T00:10:35;95550.53;;;12.62;100.00
74270;BME280;62754;48.252;11.654;2023-08-30T00:13:01;95552.94;;;12.63;100.00
74270;BME280;62754;48.252;11.654;2023-08-30T00:15:27;95553.75;;;12.64;100.00
74270;BME280;62754;48.252;11.654;2023-08-30T00:17:53;95547.94;;;12.62;100.00
74270;BME280;62754;48.252;11.654;2023-08-30T00:20:22;95545.06;;;12.65;100.00
74270;BME280;62754;48.252;11.654;2023-08-30T00:22:48;95543.94;;;12.67;100.00
74270;BME280;62754;48.252;11.654;2023-08-30T00:25:19;95543.59;;;12.62;100.00
74270;BME280;62754;48.252;11.654;2023-08-30T00:27:47;95550.38;;;12.63;100.00
74270;BME280;62754;48.252;11.654;2023-08-30T00:30:15;95546.91;;;12.55;100.00
74270;BME280;62754;48.252;11.654;2023-08-30T00:32:41;95553.13;;;12.62;100.00
74270;BME280;62754;48.252;11.654;2023-08-30T00:35:07;95545.84;;;12.48;100.00
74270;BME280;62754;48.252;11.654;2023-08-30T00:37:33;95549.88;;;12.42;100.00
74270;BME280;62754;48.252;11.654;2023-08-30T00:40:03;95543.53;;;12.54;100.00
74270;BME280;62754;48.252;11.654;2023-08-30T00:42:31;95546.38;;;12.51;100.00
74270;BME280;62754;48.252;11.654;2023-08-30T00:44:57;95548.44;;;12.48;100.00
74270;BME280;62754;48.252;11.654;2023-08-30T00:47:25;95548.09;;;12.43;100.00
74270;BME280;62754;48.252;11.654;2023-08-30T00:49:53;95542.31;;;12.49;100.00
74270;BME280;62754;48.252;11.654;2023-08-30T00:52:22;95538.94;;;12.48;100.00
74270;BME280;62754;48.252;11.654;2023-08-30T00:54:50;95535.81;;;12.45;100.00
74270;BME280;62754;48.252;11.654;2023-08-30T00:57:16;95530.72;;;12.53;100.00
74270;BME280;62754;48.252;11.654;2023-08-30T00:59:41;95531.84;;;12.50;100.00
74270;BME280;62754;48.252;11.654;2023-08-30T01:02:09;95532.72;;;12.41;100.00
74270;BME280;62754;48.252;11.654;2023-08-30T01:04:40;95538.63;;;12.33;100.00
74270;BME280;62754;48.252;11.654;2023-08-30T01:07:05;95537.38;;;12.37;100.00
74270;BME280;62754;48.252;11.654;2023-08-30T01:09:34;95541.91;;;12.35;100.00
74270;BME280;62754;48.252;11.654;2023-08-30T01:17:07;95551.94;;;12.38;100.00
74270;BME280;62754;48.252;11.654;2023-08-30T01:19:47;95551.75;;;12.40;100.00
74270;BME280;62754;48.252;11.654;2023-08-30T01:22:37;95543.75;;;12.43;100.00
74270;BME280;62754;48.252;11.654;2023-08-30T01:27:36;95536.66;;;12.45;100.00
74270;BME280;62754;48.252;11.654;2023-08-30T01:30:08;95542.31;;;12.49;100.00
74270;BME280;62754;48.252;11.654;2023-08-30T01:32:37;95546.09;;;12.36;100.00
74270;BME280;62754;48.252;11.654;2023-08-30T01:35:05;95544.19;;;12.38;100.00
74270;BME280;62754;48.252;11.654;2023-08-30T01:37:38;95542.75;;;12.44;100.00
74270;BME280;62754;48.252;11.654;2023-08-30T01:40:05;95533.47;;;12.51;100.00
74270;BME280;62754;48.252;11.654;2023-08-30T01:42:32;95540.41;;;12.51;100.00
74270;BME280;62754;48.252;11.654;2023-08-30T01:45:00;95541.38;;;12.50;100.00
74270;BME280;62754;48.252;11.654;2023-08-30T01:47:30;95542.50;;;12.47;100.00
74270;BME280;62754;48.252;11.654;2023-08-30T01:49:59;95542.53;;;12.37;100.00
74270;BME280;62754;48.252;11.654;2023-08-30T01:52:25;95550.50;;;12.44;100.00
74270;BME280;62754;48.252;11.654;2023-08-30T01:54:56;95541.06;;;12.35;100.00
74270;BME280;62754;48.252;11.654;2023-08-30T01:57:23;95543.94;;;12.32;100.00
74270;BME280;62754;48.252;11.654;2023-08-30T01:59:53;95548.75;;;12.27;100.00
74270;BME280;62754;48.252;11.654;2023-08-30T02:02:21;95542.13;;;12.42;100.00
74270;BME280;62754;48.252;11.654;2023-08-30T02:04:47;95549.66;;;12.35;100.00
74270;BME280;62754;48.252;11.654;2023-08-30T02:07:25;95540.56;;;12.31;100.00
74270;BME280;62754;48.252;11.654;2023-08-30T02:09:57;95539.06;;;12.29;100.00
74270;BME280;62754;48.252;11.654;2023-08-30T02:12:30;95535.91;;;12.35;100.00
74270;BME280;62754;48.252;11.654;2023-08-30T02:14:59;95537.72;;;12.25;100.00
74270;BME280;62754;48.252;11.654;2023-08-30T02:17:29;95542.25;;;12.23;100.00
74270;BME280;62754;48.252;11.654;2023-08-30T02:19:58;95536.66;;;12.27;100.00
74270;BME280;62754;48.252;11.654;2023-08-30T02:22:26;95537.38;;;12.20;100.00
74270;BME280;62754;48.252;11.654;2023-08-30T02:24:54;95534.78;;;12.20;100.00
74270;BME280;62754;48.252;11.654;2023-08-30T02:27:20;95529.16;;;12.24;100.00
74270;BME280;62754;48.252;11.654;2023-08-30T02:29:46;95531.69;;;12.34;100.00
74270;BME280;62754;48.252;11.654;2023-08-30T02:32:12;95530.81;;;12.43;100.00
74270;BME280;62754;48.252;11.654;2023-08-30T02:34:37;95536.72;;;12.35;100.00
74270;BME280;62754;48.252;11.654;2023-08-30T02:37:03;95539.16;;;12.37;100.00
74270;BME280;62754;48.252;11.654;2023-08-30T02:39:29;95532.91;;;12.39;100.00
74270;BME280;62754;48.252;11.654;2023-08-30T02:41:55;95534.56;;;12.49;100.00
74270;BME280;62754;48.252;11.654;2023-08-30T02:44:23;95536.13;;;12.41;100.00
74270;BME280;62754;48.252;11.654;2023-08-30T02:46:51;95539.31;;;12.53;100.00
74270;BME280;62754;48.252;11.654;2023-08-30T02:49:17;95541.69;;;12.47;100.00
74270;BME280;62754;48.252;11.654;2023-08-30T02:51:42;95535.31;;;12.41;100.00
74270;BME280;62754;48.252;11.654;2023-08-30T02:54:08;95544.69;;;12.42;100.00
74270;BME280;62754;48.252;11.654;2023-08-30T02:56:36;95545.81;;;12.39;100.00
74270;BME280;62754;48.252;11.654;2023-08-30T02:59:02;95542.69;;;12.36;100.00
74270;BME280;62754;48.252;11.654;2023-08-30T03:01:28;95539.38;;;12.43;100.00
74270;BME280;62754;48.252;11.654;2023-08-30T03:03:56;95546.69;;;12.48;100.00
74270;BME280;62754;48.252;11.654;2023-08-30T03:06:24;95540.56;;;12.49;100.00
74270;BME280;62754;48.252;11.654;2023-08-30T03:08:50;95544.19;;;12.38;100.00
74270;BME280;62754;48.252;11.654;2023-08-30T03:11:16;95546.16;;;12.45;100.00
74270;BME280;62754;48.252;11.654;2023-08-30T03:13:41;95546.16;;;12.45;100.00
74270;BME280;62754;48.252;11.654;2023-08-30T03:16:14;95545.81;;;12.39;100.00
74270;BME280;62754;48.252;11.654;2023-08-30T03:18:41;95533.97;;;12.37;100.00
74270;BME280;62754;48.252;11.654;2023-08-30T03:21:07;95533.16;;;12.36;100.00
74270;BME280;62754;48.252;11.654;2023-08-30T03:23:35;95534.41;;;12.32;100.00
74270;BME280;62754;48.252;11.654;2023-08-30T03:26:14;95528.00;;;12.36;100.00
74270;BME280;62754;48.252;11.654;2023-08-30T03:28:43;95528.50;;;12.40;100.00
74270;BME280;62754;48.252;11.654;2023-08-30T03:33:41;95530.16;;;12.41;100.00
74270;BME280;62754;48.252;11.654;2023-08-30T03:36:10;95533.16;;;12.36;100.00
74270;BME280;62754;48.252;11.654;2023-08-30T03:38:38;95532.94;;;12.30;100.00
74270;BME280;62754;48.252;11.654;2023-08-30T03:41:04;95536.03;;;12.33;100.00
74270;BME280;62754;48.252;11.654;2023-08-30T03:43:31;95536.03;;;12.16;100.00
74270;BME280;62754;48.252;11.654;2023-08-30T03:46:00;95531.47;;;12.27;100.00
74270;BME280;62754;48.252;11.654;2023-08-30T03:48:29;95530.88;;;12.33;100.00
74270;BME280;62754;48.252;11.654;2023-08-30T03:51:00;95535.19;;;12.43;100.00
74270;BME280;62754;48.252;11.654;2023-08-30T03:53:28;95538.63;;;12.33;100.00
74270;BME280;62754;48.252;11.654;2023-08-30T03:55:56;95537.59;;;12.26;100.00
74270;BME280;62754;48.252;11.654;2023-08-30T03:58:24;95532.56;;;12.25;100.00
74270;BME280;62754;48.252;11.654;2023-08-30T04:00:52;95538.13;;;12.30;100.00
74270;BME280;62754;48.252;11.654;2023-08-30T04:03:20;95541.22;;;12.33;100.00
74270;BME280;62754;48.252;11.654;2023-08-30T04:05:54;95540.63;;;12.22;100.00
74270;BME280;62754;48.252;11.654;2023-08-30T04:08:24;95530.28;;;12.22;100.00
74270;BME280;62754;48.252;11.654;2023-08-30T04:10:53;95530.38;;;12.30;100.00
74270;BME280;62754;48.252;11.654;2023-08-30T04:13:19;95534.19;;;12.43;100.00
74270;BME280;62754;48.252;11.654;2023-08-30T04:15:49;95536.69;;;12.18;100.00
74270;BME280;62754;48.252;11.654;2023-08-30T04:18:19;95537.28;;;12.12;100.00
74270;BME280;62754;48.252;11.654;2023-08-30T04:20:45;95546.06;;;12.19;100.00
74270;BME280;62754;48.252;11.654;2023-08-30T04:23:13;95547.53;;;12.21;100.00
74270;BME280;62754;48.252;11.654;2023-08-30T04:25:43;95538.25;;;12.11;100.00
74270;BME280;62754;48.252;11.654;2023-08-30T04:28:09;95542.59;;;12.10;100.00
74270;BME280;62754;48.252;11.654;2023-08-30T04:30:37;95540.69;;;12.12;100.00
74270;BME280;62754;48.252;11.654;2023-08-30T04:33:04;95537.94;;;12.14;100.00
74270;BME280;62754;48.252;11.654;2023-08-30T04:35:34;95540.16;;;12.09;100.00
74270;BME280;62754;48.252;11.654;2023-08-30T04:38:01;95548.66;;;12.19;100.00
74270;BME280;62754;48.252;11.654;2023-08-30T04:40:29;95538.13;;;12.12;100.00
74270;BME280;62754;48.252;11.654;2023-08-30T04:42:55;95542.28;;;12.13;100.00
74270;BME280;62754;48.252;11.654;2023-08-30T04:45:26;95536.47;;;12.11;100.00
74270;BME280;62754;48.252;11.654;2023-08-30T04:47:52;95542.91;;;12.25;100.00
74270;BME280;62754;48.252;11.654;2023-08-30T04:50:18;95539.56;;;12.15;100.00
74270;BME280;62754;48.252;11.654;2023-08-30T04:52:43;95540.47;;;12.23;100.00
74270;BME280;62754;48.252;11.654;2023-08-30T04:55:12;95543.72;;;12.25;100.00
74270;BME280;62754;48.252;11.654;2023-08-30T04:57:38;95546.28;;;12.25;100.00
74270;BME280;62754;48.252;11.654;2023-08-30T05:00:07;95547.25;;;12.24;100.00
74270;BME280;62754;48.252;11.654;2023-08-30T05:02:33;95551.69;;;12.32;100.00
74270;BME280;62754;48.252;11.654;2023-08-30T05:05:00;95547.94;;;12.26;100.00
74270;BME280;62754;48.252;11.654;2023-08-30T05:07:29;95544.09;;;12.30;100.00
74270;BME280;62754;48.252;11.654;2023-08-30T05:09:55;95554.63;;;12.19;100.00
74270;BME280;62754;48.252;11.654;2023-08-30T05:12:21;95546.91;;;12.19;100.00
74270;BME280;62754;48.252;11.654;2023-08-30T05:14:49;95547.25;;;12.24;100.00
74270;BME280;62754;48.252;11.654;2023-08-30T05:17:15;95545.34;;;12.26;100.00
74270;BME280;62754;48.252;11.654;2023-08-30T05:19:43;95547.94;;;12.26;100.00
74270;BME280;62754;48.252;11.654;2023-08-30T05:22:11;95545.78;;;12.22;100.00
74270;BME280;62754;48.252;11.654;2023-08-30T05:24:38;95548.88;;;12.25;100.00
74270;BME280;62754;48.252;11.654;2023-08-30T05:27:06;95540.75;;;12.20;100.00
74270;BME280;62754;48.252;11.654;2023-08-30T05:29:32;95548.31;;;12.31;100.00
74270;BME280;62754;48.252;11.654;2023-08-30T05:32:00;95551.84;;;12.30;100.00
74270;BME280;62754;48.252;11.654;2023-08-30T05:34:26;95554.00;;;12.35;100.00
74270;BME280;62754;48.252;11.654;2023-08-30T05:36:52;95550.44;;;12.36;100.00
74270;BME280;62754;48.252;11.654;2023-08-30T05:39:18;95545.94;;;12.38;100.00
74270;BME280;62754;48.252;11.654;2023-08-30T05:41:43;95548.31;;;12.31;100.00
74270;BME280;62754;48.252;11.654;2023-08-30T05:44:09;95545.94;;;12.38;100.00
74270;BME280;62754;48.252;11.654;2023-08-30T05:46:37;95540.56;;;12.31;100.00
74270;BME280;62754;48.252;11.654;2023-08-30T05:49:05;95542.41;;;12.39;100.00
74270;BME280;62754;48.252;11.654;2023-08-30T05:51:34;95539.75;;;12.49;100.00
74270;BME280;62754;48.252;11.654;2023-08-30T05:54:02;95546.16;;;12.45;100.00
74270;BME280;62754;48.252;11.654;2023-08-30T05:56:30;95539.44;;;12.52;100.00
74270;BME280;62754;48.252;11.654;2023-08-30T05:58:56;95546.81;;;12.64;100.00
74270;BME280;62754;48.252;11.654;2023-08-30T06:01:24;95547.50;;;12.49;100.00
74270;BME280;62754;48.252;11.654;2023-08-30T06:03:50;95553.34;;;12.51;100.00
74270;BME280;62754;48.252;11.654;2023-08-30T06:06:16;95551.84;;;12.48;100.00
74270;BME280;62754;48.252;11.654;2023-08-30T06:08:44;95551.50;;;12.43;100.00
74270;BME280;62754;48.252;11.654;2023-08-30T06:11:10;95559.16;;;12.53;100.00
74270;BME280;62754;48.252;11.654;2023-08-30T06:13:35;95551.28;;;12.54;100.00
74270;BME280;62754;48.252;11.654;2023-08-30T06:16:03;95555.47;;;12.55;100.00
74270;BME280;62754;48.252;11.654;2023-08-30T06:18:32;95556.88;;;12.50;100.00
74270;BME280;62754;48.252;11.654;2023-08-30T06:20:58;95561.31;;;12.57;100.00
74270;BME280;62754;48.252;11.654;2023-08-30T06:23:26;95565.72;;;12.65;100.00
74270;BME280;62754;48.252;11.654;2023-08-30T06:25:57;95565.50;;;12.76;100.00
74270;BME280;62754;48.252;11.654;2023-08-30T06:28:24;95568.81;;;12.86;100.00
74270;BME280;62754;48.252;11.654;2023-08-30T06:30:50;95563.06;;;12.74;100.00
74270;BME280;62754;48.252;11.654;2023-08-30T06:33:16;95563.63;;;12.86;100.00
74270;BME280;62754;48.252;11.654;2023-08-30T06:35:47;95561.28;;;12.75;100.00
74270;BME280;62754;48.252;11.654;2023-08-30T06:38:13;95555.00;;;12.95;100.00
74270;BME280;62754;48.252;11.654;2023-08-30T06:40:45;95562.31;;;13.00;100.00
74270;BME280;62754;48.252;11.654;2023-08-30T06:43:12;95555.69;;;13.05;100.00
74270;BME280;62754;48.252;11.654;2023-08-30T06:45:43;95557.44;;;12.97;100.00
74270;BME280;62754;48.252;11.654;2023-08-30T06:48:09;95559.91;;;13.06;100.00
74270;BME280;62754;48.252;11.654;2023-08-30T06:50:38;95564.69;;;13.11;100.00
74270;BME280;62754;48.252;11.654;2023-08-30T06:53:08;95565.72;;;13.00;100.00
74270;BME280;62754;48.252;11.654;2023-08-30T06:55:38;95562.16;;;13.19;100.00
74270;BME280;62754;48.252;11.654;2023-08-30T06:58:04;95562.97;;;13.19;100.00
74270;BME280;62754;48.252;11.654;2023-08-30T07:00:32;95561.91;;;13.30;100.00
74270;BME280;62754;48.252;11.654;2023-08-30T07:03:00;95560.00;;;13.32;100.00
74270;BME280;62754;48.252;11.654;2023-08-30T07:05:26;95567.00;;;13.40;100.00
74270;BME280;62754;48.252;11.654;2023-08-30T07:07:54;95559.22;;;13.40;100.00
74270;BME280;62754;48.252;11.654;2023-08-30T07:10:20;95558.00;;;13.26;100.00
74270;BME280;62754;48.252;11.654;2023-08-30T07:12:48;95553.63;;;13.26;100.00
74270;BME280;62754;48.252;11.654;2023-08-30T07:15:14;95552.00;;;13.25;100.00
74270;BME280;62754;48.252;11.654;2023-08-30T07:17:42;95555.09;;;13.29;100.00
74270;BME280;62754;48.252;11.654;2023-08-30T07:20:11;95559.16;;;13.31;100.00
74270;BME280;62754;48.252;11.654;2023-08-30T07:22:38;95558.34;;;13.31;100.00
74270;BME280;62754;48.252;11.654;2023-08-30T07:25:07;95553.94;;;13.23;100.00
74270;BME280;62754;48.252;11.654;2023-08-30T07:27:35;95553.31;;;13.55;100.00
74270;BME280;62754;48.252;11.654;2023-08-30T07:30:01;95562.66;;;13.48;100.00
74270;BME280;62754;48.252;11.654;2023-08-30T07:32:30;95561.50;;;13.43;100.00
74270;BME280;62754;48.252;11.654;2023-08-30T07:35:00;95560.56;;;13.52;100.00
74270;BME280;62754;48.252;11.654;2023-08-30T07:37:26;95565.59;;;13.53;100.00
74270;BME280;62754;48.252;11.654;2023-08-30T07:39:52;95554.44;;;13.53;100.00
74270;BME280;62754;48.252;11.654;2023-08-30T07:42:17;95563.91;;;13.70;100.00
74270;BME280;62754;48.252;11.654;2023-08-30T07:44:45;95557.53;;;13.90;100.00
74270;BME280;62754;48.252;11.654;2023-08-30T07:47:11;95566.56;;;13.86;100.00
74270;BME280;62754;48.252;11.654;2023-08-30T07:49:40;95564.44;;;13.81;100.00
74270;BME280;62754;48.252;11.654;2023-08-30T07:52:06;95567.84;;;13.82;100.00
74270;BME280;62754;48.252;11.654;2023-08-30T07:54:32;95569.19;;;13.94;100.00
74270;BME280;62754;48.252;11.654;2023-08-30T07:56:59;95569.09;;;13.70;100.00
74270;BME280;62754;48.252;11.654;2023-08-30T07:59:25;95579.84;;;13.57;100.00
74270;BME280;62754;48.252;11.654;2023-08-30T08:01:51;95574.06;;;13.63;100.00
74270;BME280;62754;48.252;11.654;2023-08-30T08:04:19;95574.41;;;13.68;100.00
74270;BME280;62754;48.252;11.654;2023-08-30T08:06:45;95581.81;;;13.63;100.00
74270;BME280;62754;48.252;11.654;2023-08-30T08:09:10;95580.00;;;13.56;100.00
74270;BME280;62754;48.252;11.654;2023-08-30T08:11:36;95579.50;;;13.78;100.00
74270;BME280;62754;48.252;11.654;2023-08-30T08:14:02;95577.50;;;13.72;100.00
74270;BME280;62754;48.252;11.654;2023-08-30T08:16:30;95580.53;;;13.93;100.00
74270;BME280;62754;48.252;11.654;2023-08-30T08:18:56;95579.91;;;14.07;100.00
74270;BME280;62754;48.252;11.654;2023-08-30T08:21:24;95583.50;;;14.14;100.00
74270;BME280;62754;48.252;11.654;2023-08-30T08:23:50;95590.66;;;14.20;100.00
74270;BME280;62754;48.252;11.654;2023-08-30T08:26:18;95589.41;;;14.32;100.00
74270;BME280;62754;48.252;11.654;2023-08-30T08:28:44;95591.47;;;14.29;100.00
74270;BME280;62754;48.252;11.654;2023-08-30T08:31:09;95578.13;;;14.50;100.00
74270;BME280;62754;48.252;11.654;2023-08-30T08:33:35;95585.88;;;14.42;100.00
74270;BME280;62754;48.252;11.654;2023-08-30T08:36:03;95589.50;;;14.65;100.00
74270;BME280;62754;48.252;11.654;2023-08-30T08:38:29;95588.38;;;14.59;99.66
74270;BME280;62754;48.252;11.654;2023-08-30T08:41:02;95585.75;;;14.67;98.65
74270;BME280;62754;48.252;11.654;2023-08-30T08:43:32;95585.63;;;14.69;97.56
74270;BME280;62754;48.252;11.654;2023-08-30T08:46:04;95589.84;;;14.78;98.80
74270;BME280;62754;48.252;11.654;2023-08-30T08:48:33;95586.28;;;15.03;98.59
74270;BME280;62754;48.252;11.654;2023-08-30T08:51:04;95581.91;;;15.04;94.37
74270;BME280;62754;48.252;11.654;2023-08-30T08:53:33;95577.53;;;14.96;97.22
74270;BME280;62754;48.252;11.654;2023-08-30T08:56:02;95577.38;;;14.90;93.26
74270;BME280;62754;48.252;11.654;2023-08-30T08:58:30;95582.88;;;15.19;95.78
74270;BME280;62754;48.252;11.654;2023-08-30T09:00:56;95581.09;;;15.52;94.17
74270;BME280;62754;48.252;11.654;2023-08-30T09:03:26;95577.47;;;15.61;89.29
74270;BME280;62754;48.252;11.654;2023-08-30T09:05:52;95569.91;;;15.98;88.13
74270;BME280;62754;48.252;11.654;2023-08-30T09:08:19;95571.41;;;16.24;92.85
74270;BME280;62754;48.252;11.654;2023-08-30T09:10:45;95566.09;;;16.48;91.16
74270;BME280;62754;48.252;11.654;2023-08-30T09:13:13;95562.63;;;16.63;87.19
74270;BME280;62754;48.252;11.654;2023-08-30T09:15:41;95556.34;;;16.73;86.67
74270;BME280;62754;48.252;11.654;2023-08-30T09:18:18;95555.44;;;16.65;83.70
74270;BME280;62754;48.252;11.654;2023-08-30T09:20:44;95554.00;;;16.86;82.93
74270;BME280;62754;48.252;11.654;2023-08-30T09:23:19;95558.59;;;17.21;85.13
74270;BME280;62754;48.252;11.654;2023-08-30T09:25:45;95555.94;;;16.84;86.01
74270;BME280;62754;48.252;11.654;2023-08-30T09:28:11;95559.69;;;17.04;83.70
74270;BME280;62754;48.252;11.654;2023-08-30T09:30:37;95550.81;;;17.36;83.79
74270;BME280;62754;48.252;11.654;2023-08-30T09:33:05;95552.22;;;17.24;80.06
74270;BME280;62754;48.252;11.654;2023-08-30T09:35:31;95551.63;;;16.99;78.50
74270;BME280;62754;48.252;11.654;2023-08-30T09:38:02;95553.03;;;16.87;82.13
74270;BME280;62754;48.252;11.654;2023-08-30T09:40:30;95553.94;;;16.94;79.33
74270;BME280;62754;48.252;11.654;2023-08-30T09:42:58;95550.75;;;17.06;82.44
74270;BME280;62754;48.252;11.654;2023-08-30T09:45:24;95551.06;;;17.03;80.36
74270;BME280;62754;48.252;11.654;2023-08-30T09:47:50;95550.47;;;16.79;83.48
74270;BME280;62754;48.252;11.654;2023-08-30T09:50:19;95544.75;;;16.83;85.43
74270;BME280;62754;48.252;11.654;2023-08-30T09:52:51;95542.78;;;16.85;85.67
74270;BME280;62754;48.252;11.654;2023-08-30T09:55:21;95544.50;;;16.93;83.56
74270;BME280;62754;48.252;11.654;2023-08-30T09:57:48;95533.53;;;16.83;82.62
74270;BME280;62754;48.252;11.654;2023-08-30T10:00:18;95533.25;;;17.15;79.02
74270;BME280;62754;48.252;11.654;2023-08-30T10:02:47;95534.66;;;17.55;79.05
74270;BME280;62754;48.252;11.654;2023-08-30T10:05:18;95520.53;;;18.44;74.40
74270;BME280;62754;48.252;11.654;2023-08-30T10:07:46;95511.72;;;19.09;69.67
74270;BME280;62754;48.252;11.654;2023-08-30T10:10:13;95517.94;;;19.57;65.37
74270;BME280;62754;48.252;11.654;2023-08-30T10:12:39;95516.19;;;18.87;67.62
74270;BME280;62754;48.252;11.654;2023-08-30T10:15:05;95512.06;;;18.78;70.30
74270;BME280;62754;48.252;11.654;2023-08-30T10:17:37;95514.94;;;18.83;71.61
74270;BME280;62754;48.252;11.654;2023-08-30T10:20:05;95504.75;;;18.88;69.75
74270;BME280;62754;48.252;11.654;2023-08-30T10:22:31;95508.31;;;19.08;70.22
74270;BME280;62754;48.252;11.654;2023-08-30T10:25:01;95506.75;;;18.65;68.33
74270;BME280;62754;48.252;11.654;2023-08-30T10:27:31;95499.22;;;18.76;67.75
74270;BME280;62754;48.252;11.654;2023-08-30T10:30:01;95502.06;;;18.60;69.06
74270;BME280;62754;48.252;11.654;2023-08-30T10:32:30;95498.91;;;18.50;68.96
74270;BME280;62754;48.252;11.654;2023-08-30T10:35:01;95510.28;;;18.21;71.10
74270;BME280;62754;48.252;11.654;2023-08-30T10:37:27;95515.25;;;18.01;72.95
74270;BME280;62754;48.252;11.654;2023-08-30T10:39:59;95506.09;;;17.91;75.03
74270;BME280;62754;48.252;11.654;2023-08-30T10:42:25;95509.94;;;18.09;74.82
74270;BME280;62754;48.252;11.654;2023-08-30T10:45:06;95507.88;;;18.41;72.62
74270;BME280;62754;48.252;11.654;2023-08-30T10:47:36;95505.06;;;18.57;74.50
74270;BME280;62754;48.252;11.654;2023-08-30T10:50:06;95506.75;;;18.65;68.36
74270;BME280;62754;48.252;11.654;2023-08-30T10:52:35;95505.06;;;18.57;67.02
74270;BME280;62754;48.252;11.654;2023-08-30T10:55:14;95503.75;;;18.68;66.62
74270;BME280;62754;48.252;11.654;2023-08-30T10:57:44;95498.38;;;18.97;65.67
74270;BME280;62754;48.252;11.654;2023-08-30T11:02:42;95490.78;;;19.92;57.91
74270;BME280;62754;48.252;11.654;2023-08-30T11:05:09;95490.38;;;20.02;61.22
74270;BME280;62754;48.252;11.654;2023-08-30T11:07:37;95485.16;;;19.95;56.73
74270;BME280;62754;48.252;11.654;2023-08-30T11:10:06;95496.19;;;19.97;58.73
74270;BME280;62754;48.252;11.654;2023-08-30T11:12:39;95483.00;;;20.12;57.73
74270;BME280;62754;48.252;11.654;2023-08-30T11:15:07;95485.94;;;20.63;58.89
74270;BME280;62754;48.252;11.654;2023-08-30T11:17:32;95487.78;;;20.75;56.16
74270;BME280;62754;48.252;11.654;2023-08-30T11:20:08;95489.22;;;21.04;55.33
74270;BME280;62754;48.252;11.654;2023-08-30T11:22:40;95490.22;;;21.43;52.88
74270;BME280;62754;48.252;11.654;2023-08-30T11:25:11;95481.16;;;22.09;49.53
74270;BME280;62754;48.252;11.654;2023-08-30T11:27:41;95476.38;;;21.86;52.62
74270;BME280;62754;48.252;11.654;2023-08-30T11:30:08;95476.91;;;21.44;50.59
74270;BME280;62754;48.252;11.654;2023-08-30T11:32:34;95481.72;;;20.55;56.31
74270;BME280;62754;48.252;11.654;2023-08-30T11:35:03;95484.53;;;20.60;53.96
74270;BME280;62754;48.252;11.654;2023-08-30T11:37:29;95479.75;;;19.62;56.58
74270;BME280;62754;48.252;11.654;2023-08-30T11:39:58;95478.16;;;19.06;62.93
74270;BME280;62754;48.252;11.654;2023-08-30T11:42:27;95480.13;;;18.76;64.36
74270;BME280;62754;48.252;11.654;2023-08-30T11:44:55;95487.38;;;18.38;66.20
74270;BME280;62754;48.252;11.654;2023-08-30T11:47:28;95479.16;;;18.20;65.42
74270;BME280;62754;48.252;11.654;2023-08-30T11:49:56;95480.84;;;17.91;67.47
74270;BME280;62754;48.252;11.654;2023-08-30T11:52:25;95483.84;;;17.59;71.03
74270;BME280;62754;48.252;11.654;2023-08-30T11:54:52;95482.28;;;17.50;73.04
74270;BME280;62754;48.252;11.654;2023-08-30T11:57:17;95479.41;;;17.30;76.14
74270;BME280;62754;48.252;11.654;2023-08-30T11:59:48;95482.28;;;17.35;78.20
74270;BME280;62754;48.252;11.654;2023-08-30T12:02:17;95477.81;;;17.29;79.17
74270;BME280;62754;48.252;11.654;2023-08-30T12:04:47;95484.34;;;17.10;79.11
74270;BME280;62754;48.252;11.654;2023-08-30T12:07:22;95475.38;;;17.28;74.74
74270;BME280;62754;48.252;11.654;2023-08-30T12:09:48;95471.25;;;17.48;77.70
74270;BME280;62754;48.252;11.654;2023-08-30T12:12:16;95475.28;;;17.65;71.55
74270;BME280;62754;48.252;11.654;2023-08-30T12:14:44;95470.34;;;17.70;68.37
74270;BME280;62754;48.252;11.654;2023-08-30T12:17:12;95473.13;;;17.83;66.73
74270;BME280;62754;48.252;11.654;2023-08-30T12:19:38;95465.72;;;18.01;65.95
74270;BME280;62754;48.252;11.654;2023-08-30T12:22:06;95466.59;;;18.08;64.41
74270;BME280;62754;48.252;11.654;2023-08-30T12:24:45;95466.59;;;18.08;69.58
74270;BME280;62754;48.252;11.654;2023-08-30T12:27:13;95458.00;;;18.29;66.02
74270;BME280;62754;48.252;11.654;2023-08-30T12:29:39;95455.63;;;18.34;65.73
74270;BME280;62754;48.252;11.654;2023-08-30T12:32:07;95455.06;;;18.39;67.37
74270;BME280;62754;48.252;11.654;2023-08-30T12:34:34;95461.31;;;18.80;69.43
74270;BME280;62754;48.252;11.654;2023-08-30T12:37:00;95458.16;;;20.49;61.44
74270;BME280;62754;48.252;11.654;2023-08-30T12:39:25;95456.44;;;20.15;61.18
74270;BME280;62754;48.252;11.654;2023-08-30T12:41:51;95454.94;;;19.45;63.16
74270;BME280;62754;48.252;11.654;2023-08-30T12:44:21;95455.75;;;19.18;64.45
74270;BME280;62754;48.252;11.654;2023-08-30T12:46:49;95452.47;;;19.09;62.99
74270;BME280;62754;48.252;11.654;2023-08-30T12:49:15;95446.25;;;18.82;63.64
74270;BME280;62754;48.252;11.654;2023-08-30T12:51:41;95450.38;;;18.49;65.10
74270;BME280;62754;48.252;11.654;2023-08-30T12:54:07;95451.22;;;18.14;66.12
74270;BME280;62754;48.252;11.654;2023-08-30T12:56:32;95455.56;;;18.06;69.50
74270;BME280;62754;48.252;11.654;2023-08-30T12:58:58;95463.06;;;17.95;68.65